createdAt,value
2023-02-09T00:01:47.408Z,61.25
2023-02-09T00:04:15.509Z,61.33
2023-02-09T00:06:44.531Z,60.87
2023-02-09T00:09:12.164Z,63.03
2023-02-09T00:11:57.441Z,61.43
2023-02-09T00:14:25.198Z,61.48
2023-02-09T00:16:53.034Z,62.03
2023-02-09T00:19:21.843Z,60.79
2023-02-09T00:21:50.829Z,61.50
2023-02-09T00:24:18.692Z,62.20
2023-02-09T00:26:46.613Z,61.14
2023-02-09T00:29:14.696Z,62.54
2023-02-09T00:31:42.399Z,61.19
2023-02-09T00:34:11.036Z,60.95
2023-02-09T00:36:38.677Z,60.74
2023-02-09T00:39:07.854Z,61.36
2023-02-09T00:41:52.905Z,61.29
2023-02-09T00:44:20.621Z,63.43
2023-02-09T00:46:48.964Z,63.21
2023-02-09T00:49:16.871Z,62.76
2023-02-09T00:51:44.559Z,62.67
2023-02-09T00:54:13.657Z,62.62
2023-02-09T00:56:41.340Z,62.18
2023-02-09T00:59:09.052Z,63.29
2023-02-09T01:01:37.028Z,63.24
2023-02-09T01:04:05.387Z,65.37
2023-02-09T01:06:33.224Z,64.93
2023-02-09T01:09:01.069Z,63.17
2023-02-09T01:11:30.424Z,63.60
2023-02-09T01:13:59.792Z,64.12
2023-02-09T01:16:30.393Z,65.94
2023-02-09T01:19:00.658Z,64.63
2023-02-09T01:21:28.412Z,64.35
2023-02-09T01:23:56.387Z,64.13
2023-02-09T01:26:24.285Z,64.70
2023-02-09T01:28:54.287Z,65.29
2023-02-09T01:31:25.838Z,66.82
2023-02-09T01:33:54.434Z,65.56
2023-02-09T01:36:22.446Z,67.47
2023-02-09T01:38:50.315Z,68.35
2023-02-09T01:41:18.382Z,66.33
2023-02-09T01:43:51.124Z,67.02
2023-02-09T01:46:20.227Z,66.32
2023-02-09T01:48:48.810Z,66.67
2023-02-09T01:51:16.612Z,67.61
2023-02-09T01:53:44.525Z,65.97
2023-02-09T01:56:15.028Z,67.20
2023-02-09T01:58:42.770Z,67.01
2023-02-09T02:01:10.587Z,66.84
2023-02-09T02:03:39.758Z,68.77
2023-02-09T02:06:10.771Z,68.01
2023-02-09T02:08:41.491Z,66.32
2023-02-09T02:11:10.165Z,66.95
2023-02-09T02:13:37.847Z,66.99
2023-02-09T02:16:09.998Z,67.48
2023-02-09T02:18:48.803Z,68.30
2023-02-09T02:21:52.811Z,67.98
2023-02-09T02:24:48.857Z,67.21
2023-02-09T02:27:26.019Z,68.03
2023-02-09T02:30:04.632Z,66.43
2023-02-09T02:32:43.271Z,67.60
2023-02-09T02:35:16.843Z,67.47
2023-02-09T02:37:53.486Z,67.78
2023-02-09T02:40:27.677Z,68.44
2023-02-09T02:42:58.633Z,68.03
2023-02-09T02:45:35.240Z,68.09
2023-02-09T02:48:11.678Z,68.37
2023-02-09T02:50:43.142Z,69.29
2023-02-09T02:53:12.003Z,69.42
2023-02-09T02:55:40.310Z,70.16
2023-02-09T02:58:10.552Z,69.23
2023-02-09T03:00:40.920Z,69.52
2023-02-09T03:03:13.957Z,70.32
2023-02-09T03:05:43.164Z,70.08
2023-02-09T03:08:10.847Z,70.63
2023-02-09T03:10:39.838Z,72.67
2023-02-09T03:13:31.548Z,71.38
2023-02-09T03:16:10.042Z,71.33
2023-02-09T03:18:45.208Z,71.92
2023-02-09T03:21:16.426Z,71.42
2023-02-09T03:23:48.605Z,73.05
2023-02-09T03:26:20.463Z,71.23
2023-02-09T03:28:50.148Z,70.76
2023-02-09T03:31:17.892Z,69.90
2023-02-09T03:33:47.115Z,72.27
2023-02-09T03:36:18.143Z,71.73
2023-02-09T03:38:46.030Z,72.25
2023-02-09T03:41:13.765Z,71.29
2023-02-09T03:43:59.024Z,74.26
2023-02-09T03:46:26.842Z,72.48
2023-02-09T03:48:55.971Z,71.85
2023-02-09T03:51:23.693Z,71.90
2023-02-09T03:53:51.431Z,71.94
2023-02-09T03:56:19.050Z,72.48
2023-02-09T03:58:46.750Z,72.28
2023-02-09T04:01:14.456Z,71.89
2023-02-09T04:03:42.131Z,71.51
2023-02-09T04:06:11.188Z,71.56
2023-02-09T04:08:39.007Z,72.25
2023-02-09T04:11:06.822Z,71.76
2023-02-09T04:13:34.476Z,71.77
2023-02-09T04:16:02.245Z,73.21
2023-02-09T04:18:29.899Z,72.38
2023-02-09T04:20:57.603Z,71.72
2023-02-09T04:23:26.595Z,71.79
2023-02-09T04:25:54.326Z,71.63
2023-02-09T04:28:22.078Z,72.44
2023-02-09T04:30:53.096Z,72.64
2023-02-09T04:33:20.890Z,72.76
2023-02-09T04:35:49.003Z,72.73
2023-02-09T04:38:19.442Z,73.23
2023-02-09T04:40:49.626Z,72.62
2023-02-09T04:43:17.743Z,72.33
2023-02-09T04:45:45.582Z,72.75
2023-02-09T04:48:15.625Z,72.69
2023-02-09T04:50:43.868Z,72.37
2023-02-09T04:53:12.122Z,72.15
2023-02-09T04:55:39.994Z,72.53
2023-02-09T04:58:27.926Z,72.13
2023-02-09T05:00:56.187Z,70.81
2023-02-09T05:03:24.796Z,72.57
2023-02-09T05:05:55.807Z,71.93
2023-02-09T05:08:23.763Z,71.75
2023-02-09T05:10:51.994Z,72.62
2023-02-09T05:13:21.717Z,72.63
2023-02-09T05:15:50.026Z,72.64
2023-02-09T05:18:18.331Z,73.58
2023-02-09T05:20:46.622Z,74.33
2023-02-09T05:23:15.036Z,74.40
2023-02-09T05:25:43.055Z,74.34
2023-02-09T05:28:10.823Z,74.63
2023-02-09T05:30:39.970Z,75.04
2023-02-09T05:33:07.676Z,74.87
2023-02-09T05:35:36.091Z,76.02
2023-02-09T05:38:04.075Z,76.08
2023-02-09T05:40:31.747Z,75.56
2023-02-09T05:43:00.324Z,75.79
2023-02-09T05:45:28.131Z,78.25
2023-02-09T05:47:57.264Z,77.46
2023-02-09T05:50:25.021Z,77.57
2023-02-09T05:52:52.663Z,76.21
2023-02-09T05:55:20.393Z,77.03
2023-02-09T05:57:48.030Z,77.63
2023-02-09T06:00:16.755Z,77.86
2023-02-09T06:02:44.509Z,77.63
2023-02-09T06:05:13.554Z,77.88
2023-02-09T06:07:41.258Z,76.75
2023-02-09T06:10:09.434Z,77.65
2023-02-09T06:12:37.158Z,78.20
2023-02-09T06:15:05.608Z,78.16
2023-02-09T06:17:33.443Z,78.31
2023-02-09T06:20:01.082Z,78.87
2023-02-09T06:22:31.722Z,79.39
2023-02-09T06:24:59.515Z,79.82
2023-02-09T06:27:27.405Z,78.08
2023-02-09T06:29:55.108Z,78.01
2023-02-09T06:32:22.775Z,79.24
2023-02-09T06:34:50.400Z,79.10
2023-02-09T06:37:18.083Z,77.68
2023-02-09T06:39:47.209Z,78.90
2023-02-09T06:42:15.109Z,77.62
2023-02-09T06:44:42.856Z,78.63
2023-02-09T06:47:10.549Z,78.30
2023-02-09T06:49:38.239Z,78.48
2023-02-09T06:52:06.658Z,79.18
2023-02-09T06:54:34.360Z,78.04
2023-02-09T06:57:03.351Z,77.65
2023-02-09T06:59:31.015Z,78.24
2023-02-09T07:01:58.758Z,79.18
2023-02-09T07:04:26.502Z,78.91
2023-02-09T07:06:54.185Z,79.83
2023-02-09T07:09:21.896Z,79.67
2023-02-09T07:11:49.589Z,80.12
2023-02-09T07:14:18.684Z,78.38
2023-02-09T07:16:46.327Z,78.56
2023-02-09T07:19:14.196Z,77.43
2023-02-09T07:21:41.903Z,78.69
2023-02-09T07:24:09.614Z,78.44
2023-02-09T07:26:37.287Z,78.62
2023-02-09T07:29:04.967Z,76.72
2023-02-09T07:31:34.167Z,77.04
2023-02-09T07:34:01.999Z,75.17
2023-02-09T07:36:29.836Z,75.52
2023-02-09T07:38:57.903Z,75.96
2023-02-09T07:41:26.177Z,76.22
2023-02-09T07:43:53.935Z,75.88
2023-02-09T07:46:23.204Z,76.26
2023-02-09T07:48:52.237Z,75.96
2023-02-09T07:51:25.243Z,73.42
2023-02-09T07:53:53.515Z,73.10
2023-02-09T07:56:21.340Z,73.43
2023-02-09T07:58:49.292Z,74.00
2023-02-09T08:01:17.893Z,72.94
2023-02-09T08:03:46.891Z,72.78
2023-02-09T08:06:19.779Z,72.29
2023-02-09T08:08:48.447Z,72.52
2023-02-09T08:11:17.211Z,73.01
2023-02-09T08:13:45.008Z,71.51
2023-02-09T08:16:14.351Z,71.85
2023-02-09T08:18:45.170Z,71.96
2023-02-09T08:21:14.597Z,70.04
2023-02-09T08:23:45.428Z,70.49
2023-02-09T08:26:14.660Z,69.33
2023-02-09T08:28:44.907Z,68.18
2023-02-09T08:31:13.654Z,68.58
2023-02-09T08:33:41.507Z,67.78
2023-02-09T08:36:09.784Z,67.72
2023-02-09T08:38:37.517Z,66.84
2023-02-09T08:41:08.166Z,65.79
2023-02-09T08:43:36.365Z,65.55
2023-02-09T08:46:05.355Z,66.07
2023-02-09T08:48:35.690Z,64.89
2023-02-09T08:51:03.710Z,63.39
2023-02-09T08:53:31.534Z,63.86
2023-02-09T08:55:59.310Z,63.11
2023-02-09T08:58:30.212Z,62.85
2023-02-09T09:00:59.930Z,62.00
2023-02-09T09:03:31.313Z,62.17
2023-02-09T09:05:59.597Z,62.51
2023-02-09T09:08:27.566Z,61.42
2023-02-09T09:10:55.471Z,61.96
2023-02-09T09:13:24.875Z,60.37
2023-02-09T09:15:55.156Z,61.12
2023-02-09T09:18:24.070Z,60.29
2023-02-09T09:20:53.332Z,60.17
2023-02-09T09:23:21.605Z,59.68
2023-02-09T09:25:49.466Z,58.58
2023-02-09T09:28:17.627Z,59.50
2023-02-09T09:30:45.427Z,59.24
2023-02-09T09:33:14.522Z,59.26
2023-02-09T09:35:42.306Z,59.27
2023-02-09T09:38:09.971Z,59.59
2023-02-09T09:40:40.482Z,59.70
2023-02-09T09:43:15.065Z,59.70
2023-02-09T09:45:43.003Z,60.19
2023-02-09T09:48:23.078Z,59.86
2023-02-09T09:50:52.236Z,60.39
2023-02-09T09:53:28.647Z,60.12
2023-02-09T09:55:59.297Z,59.16
2023-02-09T09:58:28.830Z,60.40
2023-02-09T10:00:56.567Z,61.01
2023-02-09T10:03:35.321Z,60.61
2023-02-09T10:06:13.899Z,60.46
2023-02-09T10:08:45.158Z,59.39
2023-02-09T10:11:14.848Z,59.40
2023-02-09T10:13:44.977Z,59.28
2023-02-09T10:16:17.260Z,60.46
2023-02-09T10:18:46.602Z,59.11
2023-02-09T10:21:16.094Z,60.08
2023-02-09T10:23:45.824Z,60.50
2023-02-09T10:26:24.628Z,59.34
2023-02-09T10:28:54.339Z,59.30
2023-02-09T10:31:25.475Z,58.97
2023-02-09T10:33:58.239Z,59.20
2023-02-09T10:36:32.332Z,59.05
2023-02-09T10:39:15.387Z,58.90
2023-02-09T10:41:44.776Z,58.12
2023-02-09T10:44:19.494Z,57.54
2023-02-09T10:46:48.090Z,56.79
2023-02-09T10:49:31.450Z,56.52
2023-02-09T10:52:16.826Z,55.80
2023-02-09T10:54:45.975Z,55.80
2023-02-09T10:57:28.629Z,55.53
2023-02-09T10:59:58.302Z,54.48
2023-02-09T11:02:33.731Z,54.28
2023-02-09T11:05:02.928Z,53.05
2023-02-09T11:07:34.551Z,53.02
2023-02-09T11:10:03.510Z,53.38
2023-02-09T11:12:31.235Z,54.79
2023-02-09T11:14:58.941Z,55.13
2023-02-09T11:17:28.159Z,54.95
2023-02-09T11:20:15.504Z,55.10
2023-02-09T11:23:03.863Z,54.25
2023-02-09T11:25:34.454Z,53.76
2023-02-09T11:28:22.861Z,54.60
2023-02-09T11:31:16.777Z,54.22
2023-02-09T11:33:53.363Z,54.74
2023-02-09T11:36:37.460Z,54.80
2023-02-09T11:39:09.467Z,54.57
2023-02-09T11:41:57.580Z,56.01
2023-02-09T11:44:31.190Z,55.32
2023-02-09T11:47:02.802Z,53.79
2023-02-09T11:49:31.016Z,54.79
2023-02-09T11:52:00.718Z,54.95
2023-02-09T11:54:31.411Z,55.84
2023-02-09T11:57:02.159Z,55.44
2023-02-09T11:59:33.804Z,55.00
2023-02-09T12:02:08.397Z,54.94
2023-02-09T12:04:43.596Z,54.81
2023-02-09T12:07:17.291Z,55.09
2023-02-09T12:09:48.161Z,54.23
2023-02-09T12:12:23.367Z,53.90
2023-02-09T12:15:09.956Z,53.04
2023-02-09T12:17:42.741Z,53.03
2023-02-09T12:20:31.365Z,52.32
2023-02-09T12:23:07.794Z,52.61
2023-02-09T12:25:54.556Z,53.17
2023-02-09T12:28:47.364Z,52.84
2023-02-09T12:31:24.306Z,52.74
2023-02-09T12:34:15.799Z,52.60
2023-02-09T12:37:18.022Z,54.00
2023-02-09T12:40:29.912Z,54.03
2023-02-09T12:43:30.342Z,54.50
2023-02-09T12:46:21.015Z,54.32
2023-02-09T12:48:54.895Z,54.28
2023-02-09T12:51:40.346Z,54.42
2023-02-09T12:54:32.872Z,54.67
2023-02-09T12:57:33.747Z,54.76
2023-02-09T13:00:31.076Z,54.66
2023-02-09T13:03:11.441Z,55.34
2023-02-09T13:05:44.576Z,56.22
2023-02-09T13:08:25.556Z,56.45
2023-02-09T13:10:57.736Z,56.74
2023-02-09T13:13:34.320Z,56.50
2023-02-09T13:16:41.607Z,56.15
2023-02-09T13:19:18.182Z,56.11
2023-02-09T13:21:57.733Z,55.88
2023-02-09T13:24:36.545Z,56.10
2023-02-09T13:27:04.755Z,56.58
2023-02-09T13:29:33.245Z,57.13
2023-02-09T13:32:08.282Z,56.99
2023-02-09T13:34:39.368Z,57.79
2023-02-09T13:37:15.415Z,58.37
2023-02-09T13:39:44.138Z,57.89
2023-02-09T13:42:20.106Z,57.38
2023-02-09T13:44:51.614Z,58.57
2023-02-09T13:47:21.042Z,59.40
2023-02-09T13:50:00.077Z,58.99
2023-02-09T13:52:28.803Z,58.64
2023-02-09T13:54:56.426Z,58.95
2023-02-09T13:57:33.169Z,58.47
2023-02-09T14:00:08.648Z,59.21
2023-02-09T14:02:38.166Z,58.51
2023-02-09T14:05:07.631Z,58.78
2023-02-09T14:07:37.772Z,58.55
2023-02-09T14:10:12.301Z,57.87
2023-02-09T14:12:52.034Z,57.07
2023-02-09T14:15:38.674Z,57.11
2023-02-09T14:18:23.399Z,57.18
2023-02-09T14:21:19.581Z,58.00
2023-02-09T14:23:49.308Z,58.71
2023-02-09T14:26:23.693Z,58.71
2023-02-09T14:28:54.126Z,59.31
2023-02-09T14:31:23.823Z,59.90
2023-02-09T14:33:55.560Z,60.07
2023-02-09T14:36:25.942Z,60.97
2023-02-09T14:38:54.179Z,60.84
2023-02-09T14:41:29.818Z,61.59
2023-02-09T14:43:59.931Z,62.42
2023-02-09T14:46:27.723Z,62.74
2023-02-09T14:48:59.542Z,62.71
2023-02-09T14:51:28.633Z,62.51
2023-02-09T14:53:56.336Z,62.85
2023-02-09T14:56:25.873Z,62.18
2023-02-09T14:58:53.548Z,63.15
2023-02-09T15:01:21.308Z,63.07
2023-02-09T15:03:48.948Z,63.79
2023-02-09T15:06:18.160Z,64.36
2023-02-09T15:08:45.837Z,64.42
2023-02-09T15:11:42.191Z,65.69
2023-02-09T15:14:11.025Z,65.80
2023-02-09T15:16:38.754Z,66.31
2023-02-09T15:19:11.842Z,66.17
2023-02-09T15:21:40.904Z,67.02
2023-02-09T15:24:08.612Z,67.09
2023-02-09T15:26:37.517Z,67.21
2023-02-09T15:29:11.745Z,67.86
2023-02-09T15:31:39.494Z,68.94
2023-02-09T15:34:07.495Z,69.85
2023-02-09T15:36:35.380Z,70.05
2023-02-09T15:39:05.135Z,70.95
2023-02-09T15:41:50.535Z,71.67
2023-02-09T15:44:37.320Z,72.60
2023-02-09T15:47:23.220Z,73.89
2023-02-09T15:49:51.365Z,73.92
2023-02-09T15:52:19.405Z,74.64
2023-02-09T15:54:49.845Z,75.03
2023-02-09T15:57:17.494Z,75.79
2023-02-09T15:59:46.370Z,75.71
2023-02-09T16:02:14.872Z,76.08
2023-02-09T16:04:42.522Z,77.24
2023-02-09T16:07:12.041Z,77.56
2023-02-09T16:09:40.848Z,78.96
2023-02-09T16:12:11.996Z,79.51
2023-02-09T16:14:39.911Z,80.55
2023-02-09T16:17:08.791Z,80.88
2023-02-09T16:19:36.509Z,81.10
2023-02-09T16:22:05.380Z,81.88
2023-02-09T16:24:43.191Z,81.25
2023-02-09T16:27:16.290Z,82.80
2023-02-09T16:29:44.117Z,82.62
2023-02-09T16:32:17.011Z,82.36
2023-02-09T16:34:44.720Z,82.66
2023-02-09T16:37:15.207Z,83.15
2023-02-09T16:39:43.501Z,83.69
2023-02-09T16:42:14.872Z,84.26
2023-02-09T16:44:43.035Z,83.58
2023-02-09T16:47:17.315Z,84.31
2023-02-09T16:49:49.723Z,84.00
2023-02-09T16:52:20.414Z,83.26
2023-02-09T16:54:50.080Z,84.03
2023-02-09T16:57:20.772Z,84.26
2023-02-09T16:59:48.423Z,84.33
2023-02-09T17:02:29.836Z,84.45
2023-02-09T17:04:58.006Z,85.61
2023-02-09T17:07:30.169Z,86.24
2023-02-09T17:09:59.903Z,86.22
2023-02-09T17:12:29.069Z,86.08
2023-02-09T17:14:56.824Z,88.75
2023-02-09T17:17:24.566Z,89.61
2023-02-09T17:19:52.893Z,89.40
2023-02-09T17:22:20.543Z,88.10
2023-02-09T17:24:48.493Z,86.56
2023-02-09T17:27:16.128Z,88.84
2023-02-09T17:29:45.216Z,88.37
2023-02-09T17:32:15.735Z,86.92
2023-02-09T17:34:43.749Z,86.38
2023-02-09T17:37:14.518Z,88.87
2023-02-09T17:39:42.238Z,88.85
2023-02-09T17:42:20.675Z,89.52
2023-02-09T17:44:50.811Z,88.53
2023-02-09T17:47:20.612Z,88.67
2023-02-09T17:49:48.445Z,88.37
2023-02-09T17:52:17.984Z,87.56
2023-02-09T17:54:46.499Z,87.36
2023-02-09T17:57:15.009Z,87.30
2023-02-09T17:59:42.820Z,87.52
2023-02-09T18:02:16.560Z,88.27
2023-02-09T18:04:44.266Z,89.54
2023-02-09T18:07:12.746Z,89.94
2023-02-09T18:09:40.394Z,90.68
2023-02-09T18:12:11.940Z,91.96
2023-02-09T18:14:40.010Z,93.03
2023-02-09T18:17:07.756Z,92.75
2023-02-09T18:19:36.893Z,93.02
2023-02-09T18:22:05.009Z,91.74
2023-02-09T18:24:34.137Z,93.99
2023-02-09T18:27:02.069Z,95.95
2023-02-09T18:29:30.224Z,94.68
2023-02-09T18:31:58.277Z,95.13
2023-02-09T18:34:26.109Z,94.04
2023-02-09T18:36:55.209Z,93.77
2023-02-09T18:39:22.922Z,95.50
2023-02-09T18:41:54.432Z,97.40
2023-02-09T18:44:24.377Z,99.90
2023-02-09T18:46:52.237Z,98.05
2023-02-09T18:49:19.962Z,98.37
2023-02-09T18:51:47.835Z,98.99
2023-02-09T18:54:16.938Z,99.23
2023-02-09T18:56:44.644Z,99.51
2023-02-09T18:59:12.415Z,99.53
2023-02-09T19:01:41.025Z,100.00
2023-02-09T19:04:08.963Z,100.00
2023-02-09T19:06:36.679Z,100.00
2023-02-09T19:09:04.542Z,100.00
2023-02-09T19:11:33.604Z,100.00
2023-02-09T19:14:18.852Z,100.00
2023-02-09T19:16:46.554Z,100.00
2023-02-09T19:19:16.071Z,100.00
2023-02-09T19:21:43.767Z,100.00
2023-02-09T19:24:11.440Z,100.00
2023-02-09T19:26:40.530Z,100.00
2023-02-09T19:29:08.217Z,100.00
2023-02-09T19:31:35.954Z,100.00
2023-02-09T19:34:03.704Z,100.00
2023-02-09T19:36:31.466Z,100.00
2023-02-09T19:39:00.214Z,100.00
2023-02-09T19:41:28.276Z,100.00
2023-02-09T19:43:57.918Z,100.00
2023-02-09T19:46:26.234Z,100.00
2023-02-09T19:48:54.634Z,100.00
2023-02-09T19:51:22.738Z,100.00
2023-02-09T19:53:50.861Z,100.00
2023-02-09T19:56:20.757Z,100.00
2023-02-09T19:58:48.455Z,100.00
2023-02-09T20:01:17.827Z,100.00
2023-02-09T20:03:45.525Z,100.00
2023-02-09T20:06:15.006Z,100.00
2023-02-09T20:08:42.920Z,100.00
2023-02-09T20:11:13.127Z,100.00
2023-02-09T20:13:40.905Z,100.00
2023-02-09T20:16:09.484Z,100.00
2023-02-09T20:18:40.119Z,100.00
2023-02-09T20:21:09.250Z,100.00
2023-02-09T20:23:37.364Z,100.00
2023-02-09T20:26:10.804Z,100.00
2023-02-09T20:28:38.891Z,100.00
2023-02-09T20:31:07.461Z,100.00
2023-02-09T20:33:35.649Z,100.00
2023-02-09T20:36:07.535Z,100.00
2023-02-09T20:38:36.477Z,100.00
2023-02-09T20:41:07.023Z,100.00
2023-02-09T20:43:51.942Z,100.00
2023-02-09T20:46:39.271Z,100.00
2023-02-09T20:49:07.359Z,100.00
2023-02-09T20:51:36.372Z,100.00
2023-02-09T20:54:04.740Z,100.00
2023-02-09T20:56:32.538Z,100.00
2023-02-09T20:59:00.319Z,100.00
2023-02-09T21:01:28.147Z,100.00
2023-02-09T21:03:56.878Z,100.00
2023-02-09T21:06:24.587Z,100.00
2023-02-09T21:08:54.169Z,100.00
2023-02-09T21:11:21.931Z,100.00
2023-02-09T21:13:49.668Z,100.00
2023-02-09T21:16:17.730Z,100.00
2023-02-09T21:18:45.849Z,100.00
2023-02-09T21:21:15.860Z,100.00
2023-02-09T21:23:43.752Z,100.00
2023-02-09T21:26:14.847Z,100.00
2023-02-09T21:28:43.691Z,100.00
2023-02-09T21:31:12.395Z,100.00
2023-02-09T21:33:40.043Z,100.00
2023-02-09T21:36:08.692Z,100.00
2023-02-09T21:38:41.374Z,100.00
2023-02-09T21:41:30.804Z,100.00
2023-02-09T21:44:00.261Z,100.00
2023-02-09T21:46:28.425Z,100.00
2023-02-09T21:48:56.296Z,100.00
2023-02-09T21:51:24.362Z,100.00
2023-02-09T21:53:52.531Z,100.00
2023-02-09T21:56:20.535Z,100.00
2023-02-09T21:58:48.198Z,100.00
2023-02-09T22:01:17.289Z,100.00
2023-02-09T22:03:48.905Z,100.00
2023-02-09T22:06:16.855Z,100.00
2023-02-09T22:08:44.624Z,100.00
2023-02-09T22:11:12.375Z,100.00
2023-02-09T22:13:40.148Z,100.00
2023-02-09T22:16:08.383Z,100.00
2023-02-09T22:18:37.791Z,100.00
2023-02-09T22:21:07.609Z,100.00
2023-02-09T22:23:35.357Z,100.00
2023-02-09T22:26:03.683Z,100.00
2023-02-09T22:28:31.459Z,100.00
2023-02-09T22:31:06.508Z,100.00
2023-02-09T22:33:34.415Z,100.00
2023-02-09T22:36:07.197Z,100.00
2023-02-09T22:38:35.079Z,100.00
2023-02-09T22:41:07.030Z,100.00
2023-02-09T22:43:34.842Z,100.00
2023-02-09T22:46:02.622Z,100.00
2023-02-09T22:48:30.287Z,100.00
2023-02-09T22:50:57.990Z,100.00
2023-02-09T22:53:27.484Z,100.00
2023-02-09T22:55:55.127Z,100.00
2023-02-09T22:58:22.823Z,100.00
2023-02-09T23:00:50.961Z,100.00
2023-02-09T23:03:18.606Z,100.00
2023-02-09T23:05:46.608Z,100.00
2023-02-09T23:08:14.428Z,100.00
2023-02-09T23:10:43.502Z,100.00
2023-02-09T23:13:11.259Z,100.00
2023-02-09T23:15:39.006Z,100.00
2023-02-09T23:18:06.818Z,100.00
2023-02-09T23:20:34.547Z,100.00
2023-02-09T23:23:06.503Z,100.00
2023-02-09T23:25:34.237Z,100.00
2023-02-09T23:28:03.475Z,100.00
2023-02-09T23:30:31.256Z,100.00
2023-02-09T23:32:58.944Z,100.00
2023-02-09T23:35:26.708Z,100.00
2023-02-09T23:37:54.364Z,100.00
2023-02-09T23:40:22.059Z,100.00
2023-02-09T23:42:50.123Z,100.00
2023-02-09T23:45:19.127Z,100.00
2023-02-09T23:47:46.877Z,100.00
2023-02-09T23:50:14.675Z,100.00
2023-02-09T23:52:42.340Z,100.00
2023-02-09T23:55:10.147Z,100.00
2023-02-09T23:57:37.816Z,100.00
